Crown Topaz — 3FAS9 — position and weather

sailwx.info

Track history (hours):
 
Tides and Currents Weather Stations Pressure Air Temp Water Temp Dewpoint Dewpoint Depression Visibility Wind Speed Wind Dir Waves Ship Positions

Crown Topaz

Last reported at 2015-May-03 09:15 UTC. Time now 2015-May-04 06:59 UTC.
Position N 36°60' W 029°18'.

Length 152 m; draft 6.8 m.

Type: Cargo ship. MMSI: 357144000.

Date/timePositionNaut miles runAvg speedWind from/ knotsBaromVisibWave heightAir tempDewpointWater temp
2015-May-03 09:15N 36°60' W 029°18'1419.7
2015-May-03 08:33N 37°07' W 029°04'1919.6
2015-May-03 07:33N 37°18' W 028°43'2019.7
2015-May-03 06:33N 37°28' W 028°22'2019.8
2015-May-03 05:33N 37°39' W 028°01'1919.2
2015-May-03 04:33N 37°49' W 027°40'1919.2
2015-May-03 03:34N 37°60' W 027°20'1918.7
2015-May-03 02:33N 38°10' W 026°60'1918.6
2015-May-03 01:34N 38°20' W 026°40'1918.5
2015-May-03 00:33N 38°30' W 026°20'1918.3
2015-May-02 23:29N 38°40' W 025°59'1718.4
2015-May-02 22:33N 38°50' W 025°41'  
2015-Apr-30 07:27N 49°53' W 003°11'8917.0
2015-Apr-30 02:12N 49°43' W 000°53'1319.6
2015-Apr-30 01:34N 49°38' W 000°36'1919.0
2015-Apr-30 00:34N 49°30' W 000°09'1312.7
2015-Apr-29 23:33N 49°26' E 000°09'1313.4
2015-Apr-29 22:34N 49°29' E 000°29'0 0.0
2015-Apr-29 21:32N 49°29' E 000°29'0 0.0
2015-Apr-29 20:32N 49°29' E 000°29'0 0.0
2015-Apr-29 19:32N 49°29' E 000°29'0 0.0
2015-Apr-29 18:32N 49°29' E 000°29'0 0.0
2015-Apr-29 17:32N 49°29' E 000°29'0 0.0
2015-Apr-29 16:32N 49°29' E 000°29'0 0.0
2015-Apr-29 15:29N 49°29' E 000°29'0 0.0
2015-Apr-29 14:32N 49°29' E 000°29'0 0.0
2015-Apr-29 13:33N 49°29' E 000°29'4 4.4
2015-Apr-29 12:33N 49°27' E 000°24'1111.1
2015-Apr-29 11:33N 49°26' E 000°07'1111.3
2015-Apr-29 10:34N 49°30' W 000°10'1818.4
2015-Apr-29 09:33N 49°48' W 000°09'3918.9
2015-Apr-29 07:29N 50°27' W 000°03'1718.2
2015-Apr-29 06:33N 50°32' E 000°22'1817.8
2015-Apr-29 05:33N 50°41' E 000°47'1918.5
2015-Apr-29 04:33N 50°51' E 001°12'2020.0
2015-Apr-29 03:33N 51°05' E 001°33'2020.0
2015-Apr-29 02:34N 51°20' E 001°54'1716.3
2015-Apr-29 01:30N 51°21' E 002°22'1415.4
2015-Apr-29 00:33N 51°23' E 002°45'1212.0
2015-Apr-28 23:33N 51°25' E 003°04'1515.0
2015-Apr-28 22:33N 51°25' E 003°28'9 9.3
2015-Apr-28 21:33N 51°24' E 003°43'9 8.8
2015-Apr-28 20:33N 51°23' E 003°57'7 7.0
2015-Apr-28 19:33N 51°22' E 004°08'6 6.1
2015-Apr-28 18:34N 51°21' E 004°17'0 0.1
2015-Apr-28 17:34N 51°21' E 004°17'5 4.6
2015-Apr-28 16:33N 51°16' E 004°20'2 1.7
2015-Apr-28 15:32N 51°16' E 004°23'0 0.0
2015-Apr-28 14:32N 51°16' E 004°23'0 0.0
2015-Apr-28 13:32N 51°16' E 004°23'0 0.0
2015-Apr-28 12:29N 51°16' E 004°23'0 0.0
2015-Apr-28 11:29N 51°16' E 004°23'0 0.0
2015-Apr-28 10:29N 51°16' E 004°23'0 0.0
2015-Apr-28 09:32N 51°16' E 004°23'0 0.0
2015-Apr-28 08:32N 51°16' E 004°23'0 0.0
2015-Apr-28 07:29N 51°16' E 004°23'0 0.0
2015-Apr-28 06:32N 51°16' E 004°23'0 0.0
2015-Apr-28 05:29N 51°16' E 004°23'0 0.0
2015-Apr-28 04:32N 51°16' E 004°23'0 0.0
2015-Apr-28 03:32N 51°16' E 004°23'0 0.0
2015-Apr-28 02:32N 51°16' E 004°23'0 0.0
2015-Apr-28 01:32N 51°16' E 004°23'0 0.0
2015-Apr-28 00:32N 51°16' E 004°23'0 0.0
2015-Apr-27 23:32N 51°16' E 004°23'0 0.0
2015-Apr-27 22:32N 51°16' E 004°23'0 0.0
2015-Apr-27 21:32N 51°16' E 004°23'0 0.0
2015-Apr-27 20:32N 51°16' E 004°23'0 0.0
2015-Apr-27 19:32N 51°16' E 004°23'0 0.0
2015-Apr-27 18:29N 51°16' E 004°23'0 0.0
2015-Apr-27 17:32N 51°16' E 004°23'0 0.0
2015-Apr-27 16:33N 51°16' E 004°23'0 0.0
2015-Apr-27 15:33N 51°16' E 004°23'0 0.0
2015-Apr-27 14:33N 51°16' E 004°23'0 0.0
2015-Apr-27 13:33N 51°16' E 004°23'1 1.3
2015-Apr-27 12:33N 51°16' E 004°21'5 5.4
2015-Apr-27 11:34N 51°21' E 004°17'0 0.0
2015-Apr-27 10:34N 51°21' E 004°17'1 0.8
2015-Apr-27 09:34N 51°21' E 004°16'4 4.4
2015-Apr-27 08:33N 51°23' E 004°10'8 7.6
2015-Apr-27 07:34N 51°25' E 003°58'9 9.3
2015-Apr-27 06:34N 51°23' E 003°43'9 9.0
2015-Apr-27 05:34N 51°25' E 003°29'1514.6
2015-Apr-27 04:34N 51°24' E 003°06'1211.7
2015-Apr-27 03:34N 51°21' E 002°48'7 7.2
2015-Apr-27 02:34N 51°21' E 002°36'4 4.4
2015-Apr-27 01:33N 51°22' E 002°29'8 7.8
2015-Apr-27 00:33N 51°18' E 002°18'8 8.3
2015-Apr-26 23:34N 51°14' E 002°07'8 8.4
2015-Apr-26 22:33N 51°10' E 001°55'1010.4
2015-Apr-26 21:34N 51°03' E 001°42'1313.2
2015-Apr-26 20:33N 50°53' E 001°28'5117.0
2015-Apr-26 17:33N 50°25' E 000°21'3517.7
2015-Apr-26 15:33N 50°32' W 000°33'1717.0
2015-Apr-26 14:33N 50°40' W 000°56'1110.6
2015-Apr-26 13:34N 50°48' W 001°07'1 0.8
2015-Apr-26 12:33N 50°49' W 001°06'0 0.0
2015-Apr-26 11:33N 50°49' W 001°06'0 0.0
2015-Apr-26 10:33N 50°49' W 001°06'0 0.0
2015-Apr-26 09:33N 50°49' W 001°06'0 0.0
2015-Apr-26 08:33N 50°49' W 001°06'0 0.0
2015-Apr-26 07:33N 50°49' W 001°06'0 0.0
2015-Apr-26 06:33N 50°49' W 001°06'0 0.0
2015-Apr-26 05:33N 50°49' W 001°06'0 0.0
2015-Apr-26 04:33N 50°49' W 001°06'0 0.0
2015-Apr-26 03:33N 50°49' W 001°06'0 0.0
2015-Apr-26 02:33N 50°49' W 001°06'0 0.0
2015-Apr-26 01:33N 50°49' W 001°06'0 0.0
2015-Apr-26 00:33N 50°49' W 001°06'0 0.0
2015-Apr-25 23:33N 50°49' W 001°06'0 0.0
2015-Apr-25 22:33N 50°49' W 001°06'0 0.0
2015-Apr-25 21:33N 50°49' W 001°06'0 0.0
2015-Apr-25 20:33N 50°49' W 001°06'0 0.0
2015-Apr-25 19:33N 50°49' W 001°06'0 0.0
2015-Apr-25 18:33N 50°49' W 001°06'0 0.0
2015-Apr-25 17:33N 50°49' W 001°06'4 4.4
2015-Apr-25 16:34N 50°44' W 001°04'8 7.7
2015-Apr-25 15:33N 50°37' W 000°59'1212.3
2015-Apr-25 14:33N 50°29' W 001°13'2120.2
2015-Apr-25 13:30N 50°23' W 001°45'2020.9
2015-Apr-25 12:32N 50°17' W 002°16'2020.3
2015-Apr-25 11:34N 50°12' W 002°46'2019.8
2015-Apr-25 10:33N 50°08' W 003°16'  
Track history (hours):
 
Tides and Currents Weather Stations Pressure Air Temp Water Temp Dewpoint Dewpoint Depression Visibility Wind Speed Wind Dir Waves Ship Positions

Crown Topaz

Last reported at 2015-May-03 09:15 UTC. Time now 2015-May-04 06:59 UTC.
Position N 36°60' W 029°18'.

Length 152 m; draft 6.8 m.

Type: Cargo ship. MMSI: 357144000.

Date/timePositionNaut miles runAvg speedWind from/ knotsBaromVisibWave heightAir tempDewpointWater temp
2015-May-03 09:15N 36°60' W 029°18'1419.7
2015-May-03 08:33N 37°07' W 029°04'1919.6
2015-May-03 07:33N 37°18' W 028°43'2019.7
2015-May-03 06:33N 37°28' W 028°22'2019.8
2015-May-03 05:33N 37°39' W 028°01'1919.2
2015-May-03 04:33N 37°49' W 027°40'1919.2
2015-May-03 03:34N 37°60' W 027°20'1918.7
2015-May-03 02:33N 38°10' W 026°60'1918.6
2015-May-03 01:34N 38°20' W 026°40'1918.5
2015-May-03 00:33N 38°30' W 026°20'1918.3
2015-May-02 23:29N 38°40' W 025°59'1718.4
2015-May-02 22:33N 38°50' W 025°41'  
2015-Apr-30 07:27N 49°53' W 003°11'8917.0
2015-Apr-30 02:12N 49°43' W 000°53'1319.6
2015-Apr-30 01:34N 49°38' W 000°36'1919.0
2015-Apr-30 00:34N 49°30' W 000°09'1312.7
2015-Apr-29 23:33N 49°26' E 000°09'1313.4
2015-Apr-29 22:34N 49°29' E 000°29'0 0.0
2015-Apr-29 21:32N 49°29' E 000°29'0 0.0
2015-Apr-29 20:32N 49°29' E 000°29'0 0.0
2015-Apr-29 19:32N 49°29' E 000°29'0 0.0
2015-Apr-29 18:32N 49°29' E 000°29'0 0.0
2015-Apr-29 17:32N 49°29' E 000°29'0 0.0
2015-Apr-29 16:32N 49°29' E 000°29'0 0.0
2015-Apr-29 15:29N 49°29' E 000°29'0 0.0
2015-Apr-29 14:32N 49°29' E 000°29'0 0.0
2015-Apr-29 13:33N 49°29' E 000°29'4 4.4
2015-Apr-29 12:33N 49°27' E 000°24'1111.1
2015-Apr-29 11:33N 49°26' E 000°07'1111.3
2015-Apr-29 10:34N 49°30' W 000°10'1818.4
2015-Apr-29 09:33N 49°48' W 000°09'3918.9
2015-Apr-29 07:29N 50°27' W 000°03'1718.2
2015-Apr-29 06:33N 50°32' E 000°22'1817.8
2015-Apr-29 05:33N 50°41' E 000°47'1918.5
2015-Apr-29 04:33N 50°51' E 001°12'2020.0
2015-Apr-29 03:33N 51°05' E 001°33'2020.0
2015-Apr-29 02:34N 51°20' E 001°54'1716.3
2015-Apr-29 01:30N 51°21' E 002°22'1415.4
2015-Apr-29 00:33N 51°23' E 002°45'1212.0
2015-Apr-28 23:33N 51°25' E 003°04'1515.0
2015-Apr-28 22:33N 51°25' E 003°28'9 9.3
2015-Apr-28 21:33N 51°24' E 003°43'9 8.8
2015-Apr-28 20:33N 51°23' E 003°57'7 7.0
2015-Apr-28 19:33N 51°22' E 004°08'6 6.1
2015-Apr-28 18:34N 51°21' E 004°17'0 0.1
2015-Apr-28 17:34N 51°21' E 004°17'5 4.6
2015-Apr-28 16:33N 51°16' E 004°20'2 1.7
2015-Apr-28 15:32N 51°16' E 004°23'0 0.0
2015-Apr-28 14:32N 51°16' E 004°23'0 0.0
2015-Apr-28 13:32N 51°16' E 004°23'0 0.0
2015-Apr-28 12:29N 51°16' E 004°23'0 0.0
2015-Apr-28 11:29N 51°16' E 004°23'0 0.0
2015-Apr-28 10:29N 51°16' E 004°23'0 0.0
2015-Apr-28 09:32N 51°16' E 004°23'0 0.0
2015-Apr-28 08:32N 51°16' E 004°23'0 0.0
2015-Apr-28 07:29N 51°16' E 004°23'0 0.0
2015-Apr-28 06:32N 51°16' E 004°23'0 0.0
2015-Apr-28 05:29N 51°16' E 004°23'0 0.0
2015-Apr-28 04:32N 51°16' E 004°23'0 0.0
2015-Apr-28 03:32N 51°16' E 004°23'0 0.0
2015-Apr-28 02:32N 51°16' E 004°23'0 0.0
2015-Apr-28 01:32N 51°16' E 004°23'0 0.0
2015-Apr-28 00:32N 51°16' E 004°23'0 0.0
2015-Apr-27 23:32N 51°16' E 004°23'0 0.0
2015-Apr-27 22:32N 51°16' E 004°23'0 0.0
2015-Apr-27 21:32N 51°16' E 004°23'0 0.0
2015-Apr-27 20:32N 51°16' E 004°23'0 0.0
2015-Apr-27 19:32N 51°16' E 004°23'0 0.0
2015-Apr-27 18:29N 51°16' E 004°23'0 0.0
2015-Apr-27 17:32N 51°16' E 004°23'0 0.0
2015-Apr-27 16:33N 51°16' E 004°23'0 0.0
2015-Apr-27 15:33N 51°16' E 004°23'0 0.0
2015-Apr-27 14:33N 51°16' E 004°23'0 0.0
2015-Apr-27 13:33N 51°16' E 004°23'1 1.3
2015-Apr-27 12:33N 51°16' E 004°21'5 5.4
2015-Apr-27 11:34N 51°21' E 004°17'0 0.0
2015-Apr-27 10:34N 51°21' E 004°17'1 0.8
2015-Apr-27 09:34N 51°21' E 004°16'4 4.4
2015-Apr-27 08:33N 51°23' E 004°10'8 7.6
2015-Apr-27 07:34N 51°25' E 003°58'9 9.3
2015-Apr-27 06:34N 51°23' E 003°43'9 9.0
2015-Apr-27 05:34N 51°25' E 003°29'1514.6
2015-Apr-27 04:34N 51°24' E 003°06'1211.7
2015-Apr-27 03:34N 51°21' E 002°48'7 7.2
2015-Apr-27 02:34N 51°21' E 002°36'4 4.4
2015-Apr-27 01:33N 51°22' E 002°29'8 7.8
2015-Apr-27 00:33N 51°18' E 002°18'8 8.3
2015-Apr-26 23:34N 51°14' E 002°07'8 8.4
2015-Apr-26 22:33N 51°10' E 001°55'1010.4
2015-Apr-26 21:34N 51°03' E 001°42'1313.2
2015-Apr-26 20:33N 50°53' E 001°28'5117.0
2015-Apr-26 17:33N 50°25' E 000°21'3517.7
2015-Apr-26 15:33N 50°32' W 000°33'1717.0
2015-Apr-26 14:33N 50°40' W 000°56'1110.6
2015-Apr-26 13:34N 50°48' W 001°07'1 0.8
2015-Apr-26 12:33N 50°49' W 001°06'0 0.0
2015-Apr-26 11:33N 50°49' W 001°06'0 0.0
2015-Apr-26 10:33N 50°49' W 001°06'0 0.0
2015-Apr-26 09:33N 50°49' W 001°06'0 0.0
2015-Apr-26 08:33N 50°49' W 001°06'0 0.0
2015-Apr-26 07:33N 50°49' W 001°06'0 0.0
2015-Apr-26 06:33N 50°49' W 001°06'0 0.0
2015-Apr-26 05:33N 50°49' W 001°06'0 0.0
2015-Apr-26 04:33N 50°49' W 001°06'0 0.0
2015-Apr-26 03:33N 50°49' W 001°06'0 0.0
2015-Apr-26 02:33N 50°49' W 001°06'0 0.0
2015-Apr-26 01:33N 50°49' W 001°06'0 0.0
2015-Apr-26 00:33N 50°49' W 001°06'0 0.0
2015-Apr-25 23:33N 50°49' W 001°06'0 0.0
2015-Apr-25 22:33N 50°49' W 001°06'0 0.0
2015-Apr-25 21:33N 50°49' W 001°06'0 0.0
2015-Apr-25 20:33N 50°49' W 001°06'0 0.0
2015-Apr-25 19:33N 50°49' W 001°06'0 0.0
2015-Apr-25 18:33N 50°49' W 001°06'0 0.0
2015-Apr-25 17:33N 50°49' W 001°06'4 4.4
2015-Apr-25 16:34N 50°44' W 001°04'8 7.7
2015-Apr-25 15:33N 50°37' W 000°59'1212.3
2015-Apr-25 14:33N 50°29' W 001°13'2120.2
2015-Apr-25 13:30N 50°23' W 001°45'2020.9
2015-Apr-25 12:32N 50°17' W 002°16'2020.3
2015-Apr-25 11:34N 50°12' W 002°46'2019.8
2015-Apr-25 10:33N 50°08' W 003°16'  

Dump ship's entire track history